Latest Weather Observations for Noarlunga

IDS60801

Issued at 4:31 pm CST Wednesday 29 June 2016 (issued every 30 minutes, with the page automatically refreshed every 10 minutes)

About weather observations | Map of weather stations | Latest weather observations for SA | Other Formats
Station Details ID: 023885 Name: NOARLUNGA Lat: -35.16 Lon: 138.51 Height: 55.0 m
Data from the previous 72 hours. | See also: Recent months at Noarlunga
Date/Time
CST
Temp
°C
App
Temp
°C
Dew
Point
°C
Rel
Hum
%
Delta-T
°C
Wind Press
QNH
hPa
Press
MSL
hPa
Rain since
9am
mm
Dir  Spd
km/h
Gust
km/h
Spd
kts
Gust
kts
29/04:30pm 12.3 3.3 4.5 59 3.6 N 41 63 22 34 - - 0.0
29/04:00pm 12.5 4.4 5.2 61 3.4 N 37 61 20 33 - - 0.0
29/03:32pm 12.2 4.5 5.4 63 3.2 N 35 54 19 29 - - 0.0
29/03:30pm 12.1 4.0 5.3 63 3.2 N 37 54 20 29 - - 0.0
29/03:00pm 12.1 3.6 5.3 63 3.2 N 39 61 21 33 - - 0.0
29/02:31pm 12.2 3.3 5.1 62 3.3 N 41 59 22 32 - - 0.0
29/02:30pm 12.3 3.5 5.5 63 3.2 N 41 59 22 32 - - 0.0
29/02:00pm 12.1 4.7 5.0 62 3.3 N 33 52 18 28 - - 0.0
29/01:43pm 12.2 5.8 5.4 63 3.2 N 28 48 15 26 - - 0.0
29/01:30pm 12.1 6.1 5.5 64 3.1 N 26 41 14 22 - - 0.0
29/01:00pm 11.8 5.1 5.7 66 2.8 N 30 41 16 22 - - 0.0
29/12:43pm 11.6 4.9 5.5 66 2.8 N 30 48 16 26 - - 0.0
29/12:30pm 11.5 6.0 5.8 68 2.7 N 24 35 13 19 - - 0.0
29/12:00pm 11.4 5.5 5.7 68 2.6 N 26 39 14 21 - - 0.0
29/11:30am 11.4 5.4 5.5 67 2.7 N 26 39 14 21 - - 0.0
29/11:00am 11.3 5.7 5.4 67 2.7 N 24 37 13 20 - - 0.0
29/10:30am 11.4 5.0 5.1 65 2.9 N 28 35 15 19 - - 0.0
29/10:00am 11.2 5.9 4.9 65 2.9 N 22 37 12 20 - - 0.0
29/09:30am 11.1 5.8 4.8 65 2.9 N 22 33 12 18 - - 0.0
29/09:00am 10.9 5.9 4.6 65 2.8 N 20 32 11 17 - - 0.0
29/08:30am 10.6 5.8 4.7 67 2.7 N 19 26 10 14 - - 0.0
29/08:00am 10.5 5.7 4.6 67 2.7 N 19 26 10 14 - - 0.0
29/07:30am 10.4 5.5 4.3 66 2.7 N 19 28 10 15 - - 0.0
29/07:00am 10.3 6.1 4.0 65 2.8 N 15 20 8 11 - - 0.0
29/06:30am 10.3 5.7 3.6 63 2.9 NNE 17 28 9 15 - - 0.0
29/06:00am 10.3 5.6 3.3 62 3.1 NNE 17 24 9 13 - - 0.0
29/05:30am 10.2 5.5 3.3 62 3.0 NNE 17 24 9 13 - - 0.0
29/05:00am 10.0 5.7 3.3 63 2.9 NNE 15 22 8 12 - - 0.0
29/04:30am 10.2 5.5 3.0 61 3.1 NNE 17 24 9 13 - - 0.0
29/04:00am 10.4 6.1 3.2 61 3.1 N 15 30 8 16 - - 0.0
29/03:30am 10.0 5.7 3.1 62 3.0 NNE 15 24 8 13 - - 0.0
29/03:00am 9.8 5.5 3.3 64 2.8 NNE 15 20 8 11 - - 0.0
29/02:30am 9.8 5.5 3.3 64 2.8 NNE 15 19 8 10 - - 0.0
29/02:00am 9.3 6.1 3.1 65 2.7 NNE 9 13 5 7 - - 0.0
29/01:30am 9.6 6.0 3.1 64 2.8 NNE 11 13 6 7 - - 0.0
29/01:00am 10.1 6.2 3.4 63 2.9 N 13 17 7 9 - - 0.0
29/12:30am 9.3 5.8 3.7 68 2.4 NE 11 15 6 8 - - 0.0
29/12:00am 9.6 6.6 4.2 69 2.4 NE 9 13 5 7 - - 0.0
 
Date/Time
CST
Temp
°C
App
Temp
°C
Dew
Point
°C
Rel
Hum
%
Delta-T
°C
Wind Press
QNH
hPa
Press
MSL
hPa
Rain since
9am
mm
Dir  Spd
km/h
Gust
km/h
Spd
kts
Gust
kts
28/11:30pm 9.9 6.6 4.5 69 2.4 NNE 11 13 6 7 - - 0.0
28/11:00pm 10.2 7.0 5.0 70 2.4 NNE 11 17 6 9 - - 0.0
28/10:30pm 10.5 7.0 5.5 71 2.3 NNE 13 19 7 10 - - 0.0
28/10:00pm 10.1 7.1 5.9 75 1.9 NNE 11 15 6 8 - - 0.0
28/09:30pm 10.1 7.2 6.4 78 1.7 NNE 11 17 6 9 - - 0.0
28/09:00pm 10.1 7.5 6.3 77 1.8 NNE 9 13 5 7 - - 0.0
28/08:30pm 10.3 7.8 6.5 77 1.8 NNE 9 11 5 6 - - 0.0
28/08:00pm 10.7 8.2 6.5 75 2.0 NNE 9 13 5 7 - - 0.0
28/07:30pm 10.9 8.1 6.8 76 1.9 NE 11 15 6 8 - - 0.0
28/07:00pm 11.4 9.1 7.3 76 2.0 N 9 13 5 7 - - 0.0
28/06:30pm 11.9 9.7 8.0 77 1.9 N 9 15 5 8 - - 0.0
28/06:00pm 12.1 9.7 8.6 79 1.7 N 11 15 6 8 - - 0.0
28/05:30pm 12.4 9.6 8.7 78 1.8 N 13 17 7 9 - - 0.0
28/05:00pm 13.0 10.1 8.3 73 2.3 N 13 20 7 11 - - 0.0
28/04:30pm 13.7 10.2 8.7 72 2.5 N 17 24 9 13 - - 0.0
28/04:00pm 13.9 10.0 9.3 74 2.4 N 20 30 11 16 - - 0.0
28/03:30pm 14.3 10.7 9.7 74 2.4 N 19 28 10 15 - - 0.0
28/03:00pm 14.5 10.7 9.7 73 2.5 NNW 20 28 11 15 - - 0.0
28/02:30pm 14.5 10.9 9.7 73 2.5 N 19 28 10 15 - - 0.0
28/02:00pm 14.3 10.1 9.9 75 2.3 NNW 22 30 12 16 - - 0.0
28/01:30pm 14.4 10.3 10.2 76 2.2 NNW 22 33 12 18 - - 0.0
28/01:00pm 13.3 9.3 9.2 76 2.1 NNW 20 32 11 17 - - 0.0
28/12:30pm 13.6 9.3 9.3 75 2.2 N 22 32 12 17 - - 0.0
28/12:00pm 13.3 8.5 9.0 75 2.2 N 24 33 13 18 - - 0.0
28/11:30am 13.1 8.2 8.4 73 2.3 N 24 32 13 17 - - 0.0
28/11:00am 12.7 8.5 8.4 75 2.1 N 20 28 11 15 - - 0.0
28/10:30am 12.1 8.7 7.8 75 2.1 N 15 28 8 15 - - 0.0
28/10:00am 11.3 7.2 7.8 79 1.7 N 19 28 10 15 - - 0.0
28/09:30am 11.4 7.7 7.9 79 1.7 N 17 22 9 12 - - 0.0
28/09:00am 10.9 7.2 8.0 82 1.4 N 17 26 9 14 - - 0.0
28/08:30am 10.7 7.0 8.1 84 1.3 NNE 17 22 9 12 - - 0.0
28/08:00am 10.6 7.7 8.2 85 1.2 N 13 20 7 11 - - 0.0
28/07:30am 10.4 6.8 8.2 86 1.1 N 17 24 9 13 - - 0.0
28/07:00am 10.3 6.6 8.1 86 1.1 N 17 24 9 13 - - 0.0
28/06:30am 10.0 6.2 7.6 85 1.2 N 17 24 9 13 - - 0.0
28/06:00am 10.1 6.7 7.7 85 1.2 NNE 15 22 8 12 - - 0.0
28/05:30am 10.1 6.3 7.7 85 1.2 NNE 17 24 9 13 - - 0.0
28/05:00am 10.2 6.0 7.6 84 1.2 NNE 19 26 10 14 - - 0.0
28/04:30am 10.4 6.3 7.8 84 1.3 N 19 26 10 14 - - 0.0
28/04:00am 10.7 6.7 8.1 84 1.3 N 19 24 10 13 - - 0.0
28/03:30am 10.7 7.0 7.9 83 1.4 N 17 22 9 12 - - 0.0
28/03:00am 10.8 7.2 8.2 84 1.3 NNE 17 22 9 12 - - 0.0
28/02:30am 11.0 7.8 8.4 84 1.3 N 15 22 8 12 - - 0.0
28/02:00am 11.3 7.8 8.7 84 1.3 NNE 17 24 9 13 - - 0.0
28/01:30am 11.0 7.8 8.6 85 1.2 NNE 15 20 8 11 - - 0.0
28/01:00am 11.1 8.2 8.3 83 1.4 N 13 20 7 11 - - 0.0
28/12:30am 10.6 8.0 7.8 83 1.4 NNE 11 13 6 7 - - 0.0
28/12:00am 10.5 7.9 7.6 82 1.4 NNE 11 15 6 8 - - 0.0
 
Date/Time
CST
Temp
°C
App
Temp
°C
Dew
Point
°C
Rel
Hum
%
Delta-T
°C
Wind Press
QNH
hPa
Press
MSL
hPa
Rain since
9am
mm
Dir  Spd
km/h
Gust
km/h
Spd
kts
Gust
kts
27/11:30pm 12.3 9.9 8.6 78 1.8 NNW 11 17 6 9 - - 0.0
27/11:00pm 12.5 9.7 8.6 77 1.9 NNW 13 20 7 11 - - 0.0
27/10:30pm 12.4 10.0 8.5 77 1.9 NNW 11 15 6 8 - - 0.0
27/10:00pm 11.8 9.7 8.1 78 1.8 NNW 9 15 5 8 - - 0.0
27/09:30pm 10.6 9.0 7.8 83 1.4 NNW 6 11 3 6 - - 0.0
27/09:00pm 10.3 8.5 7.2 81 1.5 N 6 7 3 4 - - 0.0
27/08:30pm 10.5 8.7 7.0 79 1.7 N 6 7 3 4 - - 0.0
27/08:00pm 10.7 9.2 6.6 76 1.9 NW 4 7 2 4 - - 0.0
27/07:30pm 11.2 8.3 6.7 74 2.1 NNE 11 17 6 9 - - 0.0
27/07:00pm 11.4 8.6 6.9 74 2.1 NNE 11 15 6 8 - - 0.0
27/06:30pm 11.3 8.6 7.4 77 1.9 N 11 15 6 8 - - 0.0
27/06:00pm 11.4 9.0 7.1 75 2.1 N 9 11 5 6 - - 0.0
27/05:30pm 11.7 9.4 7.4 75 2.1 N 9 13 5 7 - - 0.0
27/05:00pm 12.8 10.3 6.4 65 3.1 NNW 9 13 5 7 - - 0.0
27/04:30pm 13.7 11.1 6.3 61 3.5 NW 9 15 5 8 - - 0.0
27/04:00pm 14.2 11.6 6.1 58 3.9 NW 9 13 5 7 - - 0.0
27/03:30pm 14.5 11.5 6.1 57 4.0 WNW 11 15 6 8 - - 0.0
27/03:00pm 14.4 11.5 6.7 60 3.7 NW 11 17 6 9 - - 0.0
27/02:30pm 14.6 11.6 5.9 56 4.2 WNW 11 19 6 10 - - 0.0
27/02:00pm 14.6 12.0 5.9 56 4.2 WNW 9 17 5 9 - - 0.0
27/01:30pm 14.7 12.1 6.0 56 4.2 W 9 13 5 7 - - 0.0
27/01:00pm 14.7 12.5 6.0 56 4.2 WNW 7 15 4 8 - - 0.0
27/12:30pm 14.2 11.6 6.3 59 3.8 W 9 15 5 8 - - 0.0
27/12:00pm 14.0 11.6 6.8 62 3.5 WNW 9 15 5 8 - - 0.0
27/11:30am 13.7 11.3 7.2 65 3.2 W 9 13 5 7 - - 0.0
27/11:00am 13.9 12.9 8.9 72 2.5 W 4 7 2 4 - - 0.0
27/10:30am 12.7 11.6 8.4 75 2.1 WSW 4 6 2 3 - - 0.0
27/10:00am 12.3 11.8 9.3 82 1.5 WNW 2 4 1 2 - - 0.0
27/09:30am 11.8 11.4 9.9 88 1.0 ENE 2 4 1 2 - - 0.0
27/09:00am 10.2 8.7 8.6 90 0.8 NE 6 7 3 4 - - 5.6
27/08:30am 9.4 8.9 7.8 90 0.8 CALM 0 2 0 1 - - 5.6
27/08:00am 9.1 7.4 7.5 90 0.8 NE 6 7 3 4 - - 5.6
27/07:30am 9.4 7.8 7.8 90 0.8 NE 6 6 3 3 - - 5.6
27/07:00am 9.5 8.3 7.9 90 0.8 NE 4 6 2 3 - - 5.6
27/06:30am 9.6 8.8 8.0 90 0.8 ENE 2 6 1 3 - - 5.6
27/06:00am 9.9 8.4 8.3 90 0.8 NE 6 11 3 6 - - 5.6
27/05:30am 9.8 8.1 8.2 90 0.8 NE 7 9 4 5 - - 5.0
27/05:00am 9.8 7.7 8.2 90 0.8 NE 9 11 5 6 - - 5.0
27/04:30am 10.0 8.5 8.4 90 0.8 NNE 6 7 3 4 - - 4.8
27/04:00am 9.9 8.8 8.3 90 0.8 WNW 4 9 2 5 - - 4.6
27/03:30am 9.7 8.1 8.1 90 0.8 NNE 6 9 3 5 - - 3.6
27/03:00am 9.6 7.1 8.0 90 0.8 NE 11 15 6 8 - - 3.6
27/02:30am 9.5 6.9 7.8 89 0.8 NE 11 15 6 8 - - 3.6
27/02:00am 9.6 6.6 7.9 89 0.8 NNE 13 20 7 11 - - 3.0
27/01:30am 9.5 6.1 7.6 88 0.9 NNE 15 20 8 11 - - 2.2
27/01:00am 9.4 6.0 7.5 88 0.9 NNE 15 20 8 11 - - 2.2
27/12:30am 9.3 5.8 7.3 87 0.9 NNE 15 24 8 13 - - 2.2
27/12:00am 9.3 6.2 7.1 86 1.0 NNE 13 17 7 9 - - 1.6
 
Date/Time
CST
Temp
°C
App
Temp
°C
Dew
Point
°C
Rel
Hum
%
Delta-T
°C
Wind Press
QNH
hPa
Press
MSL
hPa
Rain since
9am
mm
Dir  Spd
km/h
Gust
km/h
Spd
kts
Gust
kts
26/11:30pm 9.5 6.4 7.1 85 1.1 NNE 13 19 7 10 - - 1.4
26/11:00pm 10.2 7.4 6.9 80 1.6 NNE 11 17 6 9 - - 0.0
26/10:30pm 10.1 7.2 6.6 79 1.6 NNE 11 17 6 9 - - 0.0
26/10:00pm 10.1 6.7 6.1 76 1.9 NNE 13 19 7 10 - - 0.0
26/09:30pm 9.7 6.3 5.9 77 1.7 NNE 13 17 7 9 - - 0.0
26/09:00pm 9.3 6.3 5.9 79 1.6 NNE 11 13 6 7 - - 0.0
26/08:30pm 9.6 6.6 6.0 78 1.7 NNE 11 15 6 8 - - 0.0
26/08:00pm 9.6 6.9 5.6 76 1.8 NNE 9 13 5 7 - - 0.0
26/07:30pm 10.3 7.8 4.7 68 2.5 N 7 9 4 5 - - 0.0
26/07:00pm 10.8 8.3 4.5 65 2.8 NW 7 9 4 5 - - 0.0
26/06:30pm 11.2 8.3 4.9 65 2.9 NW 9 17 5 9 - - 0.0
26/06:00pm 11.2 8.8 6.9 75 2.0 N 9 13 5 7 - - 0.0
26/05:30pm 11.3 8.0 6.6 73 2.2 N 13 19 7 10 - - 0.0
26/05:00pm 11.2 7.8 5.7 69 2.6 N 13 20 7 11 - - 0.0

Other Formats:

Comma delimited format used in spreadsheet applications
http://www.bom.gov.au/fwo/IDS60801/IDS60801.94808.axf

JavaScript Object Notation format (JSON) in row-major order
http://www.bom.gov.au/fwo/IDS60801/IDS60801.94808.json